Time;durP1;ratioP1;P1;durP2;ratioP2;P2;SDS_P1;SDS_P2;PMS_P1;PMS_P2;Temp;Humidity;BMP_temperature;BMP_pressure;BME280_temperature;BME280_humidity;BME280_pressure;Samples;Min_cycle;Max_cycle;Signal;HPM_P1;HPM_P2
2022/05/23 00:01:18;;;;;;;;;10.33;9.00;;;;;;;;5057342;28;45458;-70
2022/05/23 00:03:44;;;;;;;;;8.00;8.00;;;;;;;;5057200;28;45948;-70
2022/05/23 00:06:09;;;;;;;;;9.00;8.00;;;;;;;;5081391;27;47807;-70
2022/05/23 00:08:35;;;;;;;;;8.33;7.33;;;;;;;;5058368;28;45221;-70
2022/05/23 00:11:02;;;;;;;;;8.00;8.00;;;;;;;;5056476;28;45444;-70
2022/05/23 00:13:27;;;;;;;;;11.67;8.67;;;;;;;;5057057;28;45515;-70
2022/05/23 00:15:53;;;;;;;;;7.67;6.67;;;;;;;;5056317;28;45372;-70
2022/05/23 00:18:18;;;;;;;;;6.67;6.67;;;;;;;;5058209;28;45392;-70
2022/05/23 00:20:43;;;;;;;;;7.00;7.00;;;;;;;;5055811;28;46443;-70
2022/05/23 00:23:08;;;;;;;;;7.00;6.00;;;;;;;;5058248;28;45619;-70
2022/05/23 00:25:33;;;;;;;;;6.00;6.00;;;;;;;;5056076;28;46186;-70
2022/05/23 00:27:59;;;;;;;;;11.00;8.33;;;;;;;;5057960;28;45386;-70
2022/05/23 00:30:25;;;;;;;;;6.67;6.00;;;;;;;;5056262;28;45264;-70
2022/05/23 00:35:35;;;;;;;;;8.67;7.67;;;;;;;;5055612;28;45335;-70
2022/05/23 00:38:00;;;;;;;;;9.00;6.00;;;;;;;;5057972;28;45402;-70
2022/05/23 00:40:37;;;;;;;;;7.00;6.67;;;;;;;;5057045;28;45686;-70
2022/05/23 00:43:13;;;;;;;;;6.00;6.00;;;;;;;;5080082;27;47208;-70
2022/05/23 00:45:39;;;;;;;;;5.67;5.67;;;;;;;;5048390;28;45420;-70
2022/05/23 00:48:05;;;;;;;;;6.67;6.00;;;;;;;;5061437;28;45499;-70
2022/05/23 00:50:32;;;;;;;;;5.00;5.00;;;;;;;;5059052;28;45368;-70
2022/05/23 00:52:59;;;;;;;;;8.33;7.00;;;;;;;;5061535;28;45566;-70
2022/05/23 00:55:26;;;;;;;;;6.33;6.33;;;;;;;;5058811;28;45449;-70
2022/05/23 00:57:55;;;;;;;;;6.00;6.00;;;;;;;;5061725;28;45374;-70
2022/05/23 01:00:20;;;;;;;;;6.00;6.00;;;;;;;;5060374;28;45174;-70
2022/05/23 01:02:50;;;;;;;;;6.00;5.00;;;;;;;;5061328;28;45263;-71
2022/05/23 01:05:15;;;;;;;;;8.00;6.00;;;;;;;;5077270;27;47203;-70
2022/05/23 01:07:41;;;;;;;;;7.00;5.67;;;;;;;;5061243;28;45291;-71
2022/05/23 01:10:09;;;;;;;;;6.00;5.00;;;;;;;;5059323;28;45703;-71
2022/05/23 01:12:35;;;;;;;;;8.67;7.33;;;;;;;;5061195;28;45951;-70
2022/05/23 01:15:00;;;;;;;;;5.00;5.00;;;;;;;;5058887;28;46074;-70
2022/05/23 01:17:27;;;;;;;;;5.00;5.00;;;;;;;;5060654;28;45430;-71
2022/05/23 01:19:52;;;;;;;;;6.00;6.00;;;;;;;;5059321;28;45509;-71
2022/05/23 01:22:24;;;;;;;;;5.00;5.00;;;;;;;;5059929;28;45350;-70
2022/05/23 01:25:02;;;;;;;;;4.33;4.33;;;;;;;;5059594;28;45681;-70
2022/05/23 01:27:28;;;;;;;;;4.00;4.00;;;;;;;;5059585;28;45502;-70
2022/05/23 01:29:54;;;;;;;;;7.00;6.00;;;;;;;;5059320;28;45365;-70
2022/05/23 01:32:19;;;;;;;;;7.00;7.00;;;;;;;;5060112;28;45390;-70
2022/05/23 01:34:44;;;;;;;;;6.67;6.33;;;;;;;;5060434;28;46796;-70
2022/05/23 01:37:10;;;;;;;;;7.67;7.00;;;;;;;;5059692;28;45749;-70
2022/05/23 01:39:35;;;;;;;;;4.00;4.00;;;;;;;;5061209;28;45692;-70
2022/05/23 01:42:00;;;;;;;;;6.00;6.00;;;;;;;;5057895;28;45529;-70
2022/05/23 01:44:27;;;;;;;;;6.00;6.00;;;;;;;;5060763;28;45645;-70
2022/05/23 01:46:52;;;;;;;;;5.00;5.00;;;;;;;;5058438;28;45412;-70
2022/05/23 01:49:18;;;;;;;;;7.33;6.00;;;;;;;;5060402;28;45372;-70
2022/05/23 01:51:43;;;;;;;;;8.67;5.67;;;;;;;;5057501;28;45495;-70
2022/05/23 01:54:08;;;;;;;;;7.67;7.67;;;;;;;;5058681;28;47319;-70
2022/05/23 01:56:33;;;;;;;;;9.00;9.00;;;;;;;;5058390;28;45923;-71
2022/05/23 02:01:42;;;;;;;;;8.00;8.00;;;;;;;;5058865;28;45517;-70
2022/05/23 02:04:07;;;;;;;;;9.67;7.67;;;;;;;;5060138;28;45323;-71
2022/05/23 02:06:33;;;;;;;;;9.33;8.00;;;;;;;;5057492;28;45505;-70
2022/05/23 02:08:58;;;;;;;;;10.00;9.00;;;;;;;;5060487;28;45466;-70
2022/05/23 02:11:23;;;;;;;;;9.33;9.33;;;;;;;;5057751;28;45484;-70
2022/05/23 02:13:48;;;;;;;;;7.33;7.33;;;;;;;;5060372;28;46045;-71
2022/05/23 02:16:19;;;;;;;;;9.00;9.00;;;;;;;;5057755;28;45432;-70
2022/05/23 02:18:44;;;;;;;;;6.67;6.67;;;;;;;;5060939;28;45210;-71
2022/05/23 02:21:09;;;;;;;;;9.67;8.00;;;;;;;;5057683;28;45448;-70
2022/05/23 02:23:36;;;;;;;;;9.00;8.00;;;;;;;;5058880;28;47372;-71
2022/05/23 02:26:02;;;;;;;;;7.67;7.33;;;;;;;;5054924;28;45307;-70
2022/05/23 02:28:27;;;;;;;;;8.00;8.00;;;;;;;;5060279;28;45420;-70
2022/05/23 02:30:53;;;;;;;;;10.33;9.33;;;;;;;;5057495;28;45327;-70
2022/05/23 02:33:18;;;;;;;;;6.67;6.67;;;;;;;;5059900;28;45446;-70
2022/05/23 02:35:43;;;;;;;;;6.33;6.00;;;;;;;;5057310;28;45438;-70
2022/05/23 02:38:08;;;;;;;;;8.33;8.00;;;;;;;;5058822;28;45271;-70
2022/05/23 02:40:33;;;;;;;;;9.00;8.00;;;;;;;;5057860;28;45315;-70
2022/05/23 02:42:59;;;;;;;;;6.67;5.67;;;;;;;;5059763;28;46466;-70
2022/05/23 02:45:24;;;;;;;;;7.00;7.00;;;;;;;;5058003;28;45463;-70
2022/05/23 02:47:49;;;;;;;;;8.00;8.00;;;;;;;;5059831;28;45358;-70
2022/05/23 02:50:15;;;;;;;;;10.33;7.00;;;;;;;;5057183;28;45406;-70
2022/05/23 02:52:41;;;;;;;;;6.00;4.00;;;;;;;;5059760;28;46617;-70
2022/05/23 02:55:07;;;;;;;;;7.00;7.00;;;;;;;;5058497;28;45418;-70
2022/05/23 02:57:32;;;;;;;;;9.00;9.00;;;;;;;;5061570;28;45519;-70
2022/05/23 02:59:57;;;;;;;;;8.67;8.67;;;;;;;;5056740;28;46037;-70
2022/05/23 03:05:07;;;;;;;;;11.33;10.00;;;;;;;;5057096;28;45541;-70
2022/05/23 03:07:32;;;;;;;;;8.00;8.00;;;;;;;;5059027;28;45308;-70
2022/05/23 03:09:57;;;;;;;;;10.67;10.67;;;;;;;;5057362;28;45494;-70
2022/05/23 03:12:23;;;;;;;;;5.00;5.00;;;;;;;;5058937;28;45467;-70
2022/05/23 03:14:48;;;;;;;;;8.67;8.67;;;;;;;;5057844;28;45537;-70
2022/05/23 03:17:14;;;;;;;;;8.00;8.00;;;;;;;;5057979;28;45454;-70
2022/05/23 03:19:39;;;;;;;;;10.00;9.00;;;;;;;;5058986;28;45406;-71
2022/05/23 03:27:33;;;;;;;;;11.00;9.33;;;;;;;;5058053;28;45502;-70
2022/05/23 03:29:59;;;;;;;;;9.00;8.67;;;;;;;;5053795;28;45509;-71
2022/05/23 03:32:24;;;;;;;;;9.33;9.00;;;;;;;;5057268;28;47008;-71
2022/05/23 03:34:49;;;;;;;;;10.00;9.67;;;;;;;;5058047;28;45449;-70
2022/05/23 03:37:14;;;;;;;;;8.00;8.00;;;;;;;;5057846;28;45489;-71
2022/05/23 03:39:40;;;;;;;;;11.67;8.33;;;;;;;;5058034;28;46021;-70
2022/05/23 03:42:05;;;;;;;;;11.00;8.00;;;;;;;;5057277;28;46127;-71
2022/05/23 03:44:31;;;;;;;;;8.67;8.00;;;;;;;;5059003;28;45355;-71
2022/05/23 03:46:56;;;;;;;;;10.67;9.00;;;;;;;;5056777;28;45340;-71
2022/05/23 03:49:21;;;;;;;;;10.00;9.67;;;;;;;;5058639;28;46421;-71
2022/05/23 03:51:46;;;;;;;;;12.00;9.67;;;;;;;;5056274;28;45449;-71
2022/05/23 03:54:11;;;;;;;;;10.00;10.00;;;;;;;;5058820;28;45426;-71
2022/05/23 03:56:37;;;;;;;;;11.00;11.00;;;;;;;;5057364;28;45363;-71
2022/05/23 03:59:02;;;;;;;;;10.00;10.00;;;;;;;;5058715;28;45491;-71
2022/05/23 04:01:28;;;;;;;;;10.00;10.00;;;;;;;;5057140;28;46503;-71
2022/05/23 04:03:54;;;;;;;;;11.67;9.00;;;;;;;;5058394;28;45277;-71
2022/05/23 04:06:19;;;;;;;;;10.00;10.00;;;;;;;;5057150;28;45265;-70
2022/05/23 04:08:44;;;;;;;;;13.33;13.00;;;;;;;;5057296;28;46467;-71
2022/05/23 04:11:09;;;;;;;;;13.00;10.33;;;;;;;;5057308;28;45459;-71
2022/05/23 04:13:35;;;;;;;;;11.00;11.00;;;;;;;;5058430;28;45205;-71
2022/05/23 04:16:01;;;;;;;;;9.00;9.00;;;;;;;;5055408;28;45446;-71
2022/05/23 04:18:26;;;;;;;;;12.00;11.00;;;;;;;;5058219;28;45536;-71
2022/05/23 04:20:51;;;;;;;;;13.00;12.67;;;;;;;;5055189;28;46010;-70
2022/05/23 04:23:17;;;;;;;;;15.67;13.67;;;;;;;;5056523;28;45269;-71
2022/05/23 04:25:43;;;;;;;;;20.00;17.67;;;;;;;;5053481;28;45480;-71
2022/05/23 04:28:09;;;;;;;;;24.67;23.33;;;;;;;;5055450;28;46231;-70
2022/05/23 04:30:35;;;;;;;;;22.33;20.67;;;;;;;;5054253;28;46192;-70
2022/05/23 04:35:44;;;;;;;;;25.67;25.00;;;;;;;;5055245;28;45509;-70
2022/05/23 04:38:09;;;;;;;;;22.33;20.67;;;;;;;;5056849;28;45566;-71
2022/05/23 04:40:34;;;;;;;;;24.00;20.33;;;;;;;;5056482;28;46394;-71
2022/05/23 04:43:00;;;;;;;;;26.67;23.33;;;;;;;;5057183;28;45283;-70
2022/05/23 04:45:25;;;;;;;;;24.67;20.33;;;;;;;;5056620;28;45247;-70
2022/05/23 04:50:34;;;;;;;;;21.00;19.33;;;;;;;;5055946;28;45732;-71
2022/05/23 04:53:01;;;;;;;;;22.67;20.00;;;;;;;;5054079;28;45405;-70
2022/05/23 04:55:26;;;;;;;;;21.67;17.33;;;;;;;;5056142;28;45496;-70
2022/05/23 04:57:52;;;;;;;;;16.00;16.00;;;;;;;;5058355;28;45323;-70
2022/05/23 05:00:19;;;;;;;;;15.00;15.00;;;;;;;;5054068;28;46402;-69
2022/05/23 05:02:45;;;;;;;;;16.00;14.67;;;;;;;;5056826;28;45416;-70
2022/05/23 05:05:11;;;;;;;;;14.67;14.67;;;;;;;;5056094;28;45287;-70
2022/05/23 05:07:36;;;;;;;;;14.00;13.00;;;;;;;;5053642;28;45649;-70
2022/05/23 05:10:01;;;;;;;;;13.00;12.00;;;;;;;;5055865;28;46215;-71
2022/05/23 05:12:26;;;;;;;;;19.33;13.67;;;;;;;;5056763;28;45348;-71
2022/05/23 05:14:52;;;;;;;;;15.00;13.33;;;;;;;;5055749;28;45311;-71
2022/05/23 05:17:17;;;;;;;;;11.33;11.33;;;;;;;;5052358;28;45535;-71
2022/05/23 05:19:42;;;;;;;;;12.33;11.33;;;;;;;;5057717;28;46232;-72
2022/05/23 05:22:07;;;;;;;;;12.00;10.67;;;;;;;;5051503;28;45348;-71
2022/05/23 05:24:33;;;;;;;;;9.33;8.67;;;;;;;;5058414;28;45297;-70
2022/05/23 05:26:58;;;;;;;;;14.33;13.33;;;;;;;;5055476;28;45407;-70
2022/05/23 05:29:24;;;;;;;;;12.67;11.33;;;;;;;;5059418;28;47446;-72
2022/05/23 05:31:58;;;;;;;;;11.33;11.33;;;;;;;;5051856;28;46005;-73
2022/05/23 05:34:30;;;;;;;;;11.00;11.00;;;;;;;;5057974;28;45323;-73
2022/05/23 05:36:59;;;;;;;;;11.00;9.00;;;;;;;;5052520;28;47728;-72
2022/05/23 05:39:27;;;;;;;;;13.67;11.00;;;;;;;;5060492;28;46272;-72
2022/05/23 05:41:58;;;;;;;;;8.33;8.33;;;;;;;;5058644;28;45350;-71
2022/05/23 05:44:27;;;;;;;;;9.67;9.67;;;;;;;;5048095;28;45197;-72
2022/05/23 05:46:55;;;;;;;;;11.33;10.00;;;;;;;;5048700;28;46108;-72
2022/05/23 05:49:22;;;;;;;;;13.00;12.00;;;;;;;;5071955;28;47588;-71
2022/05/23 05:51:50;;;;;;;;;11.33;11.33;;;;;;;;5054501;28;45562;-71
2022/05/23 05:54:25;;;;;;;;;11.67;9.00;;;;;;;;5059016;28;45238;-72
2022/05/23 05:56:51;;;;;;;;;12.33;12.00;;;;;;;;5056827;28;45317;-70
2022/05/23 05:59:17;;;;;;;;;13.33;13.00;;;;;;;;5050515;28;45323;-70
2022/05/23 06:01:43;;;;;;;;;15.67;13.67;;;;;;;;5054044;28;45372;-70
2022/05/23 06:04:08;;;;;;;;;17.67;14.00;;;;;;;;5060616;28;45244;-71
2022/05/23 06:12:01;;;;;;;;;16.00;13.33;;;;;;;;5054002;28;45437;-71
2022/05/23 06:14:26;;;;;;;;;15.00;14.00;;;;;;;;5060724;28;45294;-72
2022/05/23 06:16:51;;;;;;;;;13.33;13.33;;;;;;;;5053758;28;45611;-71
2022/05/23 06:19:17;;;;;;;;;15.00;13.00;;;;;;;;5058766;28;48513;-71
2022/05/23 06:21:42;;;;;;;;;12.33;11.67;;;;;;;;5054057;28;45498;-71
2022/05/23 06:24:07;;;;;;;;;11.00;11.00;;;;;;;;5059309;28;45383;-71
2022/05/23 06:26:33;;;;;;;;;12.67;11.33;;;;;;;;5049915;28;46170;-70
2022/05/23 06:28:58;;;;;;;;;10.67;10.67;;;;;;;;5041004;28;45320;-70
2022/05/23 06:31:23;;;;;;;;;11.00;9.33;;;;;;;;5052497;28;45454;-70
2022/05/23 06:33:49;;;;;;;;;9.33;9.33;;;;;;;;5078744;27;45273;-71
2022/05/23 06:36:15;;;;;;;;;12.67;12.33;;;;;;;;5045938;28;46320;-71
2022/05/23 06:38:41;;;;;;;;;10.00;9.00;;;;;;;;5045857;28;47065;-71
2022/05/23 06:41:08;;;;;;;;;8.00;8.00;;;;;;;;5057970;28;45571;-70
2022/05/23 06:43:34;;;;;;;;;9.33;9.00;;;;;;;;5059781;28;45312;-71
2022/05/23 06:45:59;;;;;;;;;10.00;8.33;;;;;;;;5056424;28;45245;-71
2022/05/23 06:48:25;;;;;;;;;9.00;8.00;;;;;;;;5053303;28;46460;-71
2022/05/23 06:50:51;;;;;;;;;9.67;7.33;;;;;;;;5053379;28;45553;-71
2022/05/23 06:53:19;;;;;;;;;9.67;9.67;;;;;;;;5059622;28;45472;-71
2022/05/23 06:55:44;;;;;;;;;10.00;9.00;;;;;;;;5056863;28;45350;-71
2022/05/23 06:58:10;;;;;;;;;12.00;9.00;;;;;;;;5059723;28;46293;-71
2022/05/23 07:00:36;;;;;;;;;8.33;7.33;;;;;;;;5055405;28;45339;-71
2022/05/23 07:03:02;;;;;;;;;8.00;8.00;;;;;;;;5049302;28;45348;-70
2022/05/23 07:13:38;;;;;;;;;10.00;9.00;;;;;;;;5053136;28;45513;-70
2022/05/23 07:16:05;;;;;;;;;8.67;8.67;;;;;;;;5052648;28;45617;-70
2022/05/23 07:18:30;;;;;;;;;9.67;8.00;;;;;;;;5058919;28;46630;-69
2022/05/23 07:20:56;;;;;;;;;10.00;7.33;;;;;;;;5052736;28;45368;-70
2022/05/23 07:23:21;;;;;;;;;9.00;7.67;;;;;;;;5055687;28;45252;-69
2022/05/23 07:25:46;;;;;;;;;11.33;8.33;;;;;;;;5051916;28;45629;-69
2022/05/23 07:28:11;;;;;;;;;8.33;8.33;;;;;;;;5056002;28;46426;-69
2022/05/23 07:30:37;;;;;;;;;14.00;7.67;;;;;;;;5055988;28;45121;-69
2022/05/23 07:33:02;;;;;;;;;11.33;9.00;;;;;;;;5057843;28;45467;-69
2022/05/23 07:35:27;;;;;;;;;10.00;10.00;;;;;;;;5056522;28;45334;-69
2022/05/23 07:37:53;;;;;;;;;9.00;8.67;;;;;;;;5058971;28;45343;-69
2022/05/23 07:40:19;;;;;;;;;15.00;12.00;;;;;;;;5057153;28;45414;-69
2022/05/23 07:42:44;;;;;;;;;10.00;9.00;;;;;;;;5051099;28;45188;-69
2022/05/23 07:45:11;;;;;;;;;8.33;7.67;;;;;;;;5055755;28;45462;-69
2022/05/23 07:47:37;;;;;;;;;6.67;6.67;;;;;;;;5055866;28;46368;-69
2022/05/23 07:50:03;;;;;;;;;12.33;10.00;;;;;;;;5055786;28;45445;-68
2022/05/23 07:52:28;;;;;;;;;11.33;11.00;;;;;;;;5054785;28;45423;-69
2022/05/23 08:00:32;;;;;;;;;10.00;9.33;;;;;;;;5023638;28;45414;-69
2022/05/23 08:03:18;;;;;;;;;14.33;10.67;;;;;;;;5058429;28;45424;-69
2022/05/23 08:05:44;;;;;;;;;9.67;9.67;;;;;;;;5049494;28;45239;-69
2022/05/23 08:08:09;;;;;;;;;8.67;8.67;;;;;;;;5057520;28;45265;-69
2022/05/23 08:10:35;;;;;;;;;7.67;7.67;;;;;;;;5052111;28;45368;-69
2022/05/23 08:13:02;;;;;;;;;9.33;9.00;;;;;;;;5056505;28;45411;-69
2022/05/23 08:15:28;;;;;;;;;9.33;8.33;;;;;;;;5055389;28;45825;-69
2022/05/23 08:17:54;;;;;;;;;12.67;9.67;;;;;;;;5054482;28;45846;-69
2022/05/23 08:20:19;;;;;;;;;9.67;9.67;;;;;;;;5056165;28;45288;-69
2022/05/23 08:22:47;;;;;;;;;11.33;8.33;;;;;;;;5053958;28;45269;-69
2022/05/23 08:25:12;;;;;;;;;10.00;9.67;;;;;;;;5055125;28;47292;-69
2022/05/23 08:27:37;;;;;;;;;9.67;9.33;;;;;;;;5066063;28;48211;-70
2022/05/23 08:30:04;;;;;;;;;10.67;8.67;;;;;;;;5055367;28;45402;-69
2022/05/23 08:32:30;;;;;;;;;13.00;11.33;;;;;;;;5054251;28;45397;-69
2022/05/23 08:34:55;;;;;;;;;10.00;10.00;;;;;;;;5057488;28;45506;-70
2022/05/23 08:37:20;;;;;;;;;9.33;9.33;;;;;;;;5056406;28;45398;-69
2022/05/23 08:39:47;;;;;;;;;11.33;11.33;;;;;;;;5058060;28;45647;-69
2022/05/23 08:42:12;;;;;;;;;16.00;14.00;;;;;;;;5046705;28;45261;-69
2022/05/23 08:44:43;;;;;;;;;11.00;11.00;;;;;;;;5057483;28;45330;-69
2022/05/23 08:47:11;;;;;;;;;12.33;11.33;;;;;;;;5048432;28;45437;-71
2022/05/23 08:49:46;;;;;;;;;13.33;13.33;;;;;;;;5056222;28;45916;-69
2022/05/23 08:52:14;;;;;;;;;13.00;13.00;;;;;;;;5081169;27;45376;-69
2022/05/23 08:54:51;;;;;;;;;14.00;13.67;;;;;;;;5056670;28;46514;-69
2022/05/23 08:57:21;;;;;;;;;14.00;13.00;;;;;;;;5083502;27;48284;-69
2022/05/23 08:59:48;;;;;;;;;13.00;13.00;;;;;;;;5056390;28;45249;-69
2022/05/23 09:02:19;;;;;;;;;18.00;16.67;;;;;;;;5053263;28;45406;-69
2022/05/23 09:04:54;;;;;;;;;17.00;15.00;;;;;;;;5059228;28;46262;-70
2022/05/23 09:07:26;;;;;;;;;16.33;16.33;;;;;;;;5081479;27;46680;-69
2022/05/23 09:09:53;;;;;;;;;18.00;18.00;;;;;;;;5060769;28;45315;-69
2022/05/23 09:12:18;;;;;;;;;19.00;15.00;;;;;;;;5055293;28;45421;-69
2022/05/23 09:14:43;;;;;;;;;18.00;17.00;;;;;;;;5061093;28;45442;-69
2022/05/23 09:17:15;;;;;;;;;14.33;14.33;;;;;;;;5055028;28;45470;-69
2022/05/23 09:19:43;;;;;;;;;15.00;15.00;;;;;;;;5061440;28;45721;-69
2022/05/23 09:22:14;;;;;;;;;14.67;14.33;;;;;;;;5053153;28;45487;-68
2022/05/23 09:24:52;;;;;;;;;15.00;15.00;;;;;;;;5058519;28;47411;-71
2022/05/23 09:27:26;;;;;;;;;15.00;15.00;;;;;;;;5084778;27;48341;-68
2022/05/23 09:29:53;;;;;;;;;16.00;15.67;;;;;;;;5059255;28;45944;-69
2022/05/23 09:32:21;;;;;;;;;14.67;13.67;;;;;;;;5056813;28;45445;-68
2022/05/23 09:34:51;;;;;;;;;21.00;19.33;;;;;;;;5061175;28;45415;-68
2022/05/23 09:37:21;;;;;;;;;22.00;21.33;;;;;;;;5087098;27;47639;-69
2022/05/23 09:39:54;;;;;;;;;20.67;19.33;;;;;;;;5060112;28;45276;-69
2022/05/23 09:48:06;;;;;;;;;23.33;21.33;;;;;;;;5051592;28;45397;-68
2022/05/23 09:50:35;;;;;;;;;21.00;19.33;;;;;;;;5057860;28;45388;-68
2022/05/23 09:53:01;;;;;;;;;22.67;20.00;;;;;;;;5058764;28;45349;-68
2022/05/23 09:55:31;;;;;;;;;19.67;19.67;;;;;;;;5058789;28;45513;-69
2022/05/23 09:58:01;;;;;;;;;19.67;19.00;;;;;;;;5057018;28;46064;-69
2022/05/23 10:00:32;;;;;;;;;20.67;20.33;;;;;;;;5057922;28;45307;-69
2022/05/23 10:02:57;;;;;;;;;20.33;19.67;;;;;;;;5066677;28;45382;-68
2022/05/23 10:05:25;;;;;;;;;21.33;20.00;;;;;;;;5056210;28;45397;-68
2022/05/23 10:07:53;;;;;;;;;22.67;21.00;;;;;;;;5051622;28;48523;-68
2022/05/23 10:10:18;;;;;;;;;25.67;22.67;;;;;;;;5057440;28;45359;-68
2022/05/23 10:12:44;;;;;;;;;24.33;21.33;;;;;;;;5055472;28;45229;-68
2022/05/23 10:15:12;;;;;;;;;23.00;21.67;;;;;;;;5059025;28;45252;-68
2022/05/23 10:17:38;;;;;;;;;22.00;21.33;;;;;;;;5055814;28;46560;-68
2022/05/23 10:20:18;;;;;;;;;21.00;20.00;;;;;;;;5059917;28;45355;-68
2022/05/23 10:22:53;;;;;;;;;19.33;18.67;;;;;;;;5055551;28;45449;-69
2022/05/23 10:25:19;;;;;;;;;19.00;18.00;;;;;;;;5058880;28;45463;-69
2022/05/23 10:27:51;;;;;;;;;19.33;19.33;;;;;;;;5055605;28;45419;-69
2022/05/23 10:30:19;;;;;;;;;20.33;20.33;;;;;;;;5057400;28;45468;-69
2022/05/23 10:32:48;;;;;;;;;21.67;21.00;;;;;;;;5057744;28;45244;-70
2022/05/23 10:35:28;;;;;;;;;21.67;21.00;;;;;;;;5058412;28;45497;-69
2022/05/23 10:42:07;;;;;;;;;19.00;18.67;;;;;;;;5058995;28;47358;-69
2022/05/23 10:43:24;;;;;;;;;20.67;20.33;;;;;;;;5053699;28;45339;-69
2022/05/23 10:45:49;;;;;;;;;18.67;18.67;;;;;;;;5051137;28;45581;-69
2022/05/23 10:48:15;;;;;;;;;20.00;20.00;;;;;;;;5059544;28;45272;-69
2022/05/23 10:50:49;;;;;;;;;22.00;20.67;;;;;;;;5053721;28;45584;-69
2022/05/23 10:53:14;;;;;;;;;22.67;22.67;;;;;;;;5059716;28;45400;-70
2022/05/23 10:55:52;;;;;;;;;19.67;17.67;;;;;;;;5057510;28;45272;-69
2022/05/23 10:58:17;;;;;;;;;20.33;19.67;;;;;;;;5059728;28;45408;-69
2022/05/23 11:00:45;;;;;;;;;24.00;21.00;;;;;;;;5053437;28;45434;-69
2022/05/23 11:03:14;;;;;;;;;24.67;21.00;;;;;;;;5056431;28;45297;-69
2022/05/23 11:05:44;;;;;;;;;20.67;20.33;;;;;;;;5052880;28;47405;-69
2022/05/23 11:08:35;;;;;;;;;20.33;18.33;;;;;;;;5058554;28;45355;-69
2022/05/23 11:11:04;;;;;;;;;22.33;22.00;;;;;;;;5053584;28;45302;-69
2022/05/23 11:13:45;;;;;;;;;18.00;17.67;;;;;;;;5054661;28;45257;-70
2022/05/23 11:16:29;;;;;;;;;18.67;18.67;;;;;;;;5052204;28;46424;-70
2022/05/23 11:19:13;;;;;;;;;21.00;20.67;;;;;;;;5051639;28;46593;-69
2022/05/23 11:21:38;;;;;;;;;19.00;17.33;;;;;;;;5055451;28;45315;-69
2022/05/23 11:24:11;;;;;;;;;20.00;20.00;;;;;;;;5059038;28;45354;-69
2022/05/23 11:26:42;;;;;;;;;19.67;16.67;;;;;;;;5056628;28;45521;-70
2022/05/23 11:33:41;;;;;;;;;21.33;19.67;;;;;;;;5056697;28;45399;-70
2022/05/23 11:35:12;;;;;;;;;18.33;16.33;;;;;;;;5047585;28;45411;-69
2022/05/23 11:37:49;;;;;;;;;22.67;18.00;;;;;;;;5035487;28;45681;-70
2022/05/23 11:40:28;;;;;;;;;23.33;23.33;;;;;;;;5055910;28;47694;-69
2022/05/23 11:42:58;;;;;;;;;21.67;19.33;;;;;;;;5079363;27;45688;-70
2022/05/23 11:48:25;;;;;;;;;22.00;22.00;;;;;;;;5058416;28;45786;-69
2022/05/23 11:50:51;;;;;;;;;24.33;22.67;;;;;;;;5055509;28;47420;-70
2022/05/23 11:53:27;;;;;;;;;24.33;24.33;;;;;;;;5058605;28;45228;-71
2022/05/23 11:55:53;;;;;;;;;24.33;22.67;;;;;;;;5053961;28;45345;-70
2022/05/23 11:58:18;;;;;;;;;25.67;23.33;;;;;;;;5055802;28;46041;-70
2022/05/23 12:01:00;;;;;;;;;23.00;22.67;;;;;;;;5056777;28;45556;-70
2022/05/23 12:03:25;;;;;;;;;21.33;19.00;;;;;;;;5057196;28;45479;-70
2022/05/23 12:06:11;;;;;;;;;29.67;25.00;;;;;;;;5053039;28;45469;-70
2022/05/23 12:08:38;;;;;;;;;18.67;18.00;;;;;;;;5050393;28;46186;-70
2022/05/23 12:11:19;;;;;;;;;26.00;22.67;;;;;;;;5054145;28;46305;-71
2022/05/23 12:13:49;;;;;;;;;27.00;24.33;;;;;;;;5058440;28;45395;-71
2022/05/23 12:16:29;;;;;;;;;24.00;22.00;;;;;;;;5051548;28;45396;-71
2022/05/23 12:19:17;;;;;;;;;26.33;23.67;;;;;;;;5054477;28;45347;-71
2022/05/23 12:21:45;;;;;;;;;24.33;21.67;;;;;;;;5049210;28;47135;-70
2022/05/23 12:24:12;;;;;;;;;25.33;23.00;;;;;;;;5052668;28;45514;-71
2022/05/23 12:26:39;;;;;;;;;22.00;20.67;;;;;;;;5055574;28;45312;-70
2022/05/23 12:29:22;;;;;;;;;20.00;20.00;;;;;;;;5057256;28;45295;-71
2022/05/23 12:32:06;;;;;;;;;27.00;22.67;;;;;;;;5049241;28;46525;-71
2022/05/23 12:34:39;;;;;;;;;21.67;21.00;;;;;;;;5044133;28;45438;-70
2022/05/23 12:37:04;;;;;;;;;29.33;24.00;;;;;;;;5057944;28;45256;-71
2022/05/23 12:39:36;;;;;;;;;22.00;21.33;;;;;;;;5065478;28;45217;-72
2022/05/23 12:42:06;;;;;;;;;23.00;21.00;;;;;;;;5056713;28;47539;-70
2022/05/23 12:44:50;;;;;;;;;23.33;20.67;;;;;;;;5064355;28;45492;-73
2022/05/23 12:47:24;;;;;;;;;19.33;18.67;;;;;;;;5056583;28;45649;-73
2022/05/23 12:50:05;;;;;;;;;17.00;17.00;;;;;;;;5064999;28;46057;-71
2022/05/23 12:52:38;;;;;;;;;16.33;15.33;;;;;;;;5059349;28;46078;-71
2022/05/23 12:55:22;;;;;;;;;16.67;16.33;;;;;;;;5064168;28;45509;-71
2022/05/23 12:57:53;;;;;;;;;15.00;15.00;;;;;;;;5054051;28;45355;-71
2022/05/23 13:00:21;;;;;;;;;19.00;16.33;;;;;;;;5062977;28;45219;-71
2022/05/23 13:03:07;;;;;;;;;17.33;17.33;;;;;;;;5060087;28;45314;-71
2022/05/23 13:05:38;;;;;;;;;18.67;17.00;;;;;;;;5061360;28;45312;-72
2022/05/23 13:08:15;;;;;;;;;19.33;18.67;;;;;;;;5062408;28;45376;-72
2022/05/23 13:10:44;;;;;;;;;20.33;17.33;;;;;;;;5061506;28;45328;-72
2022/05/23 13:13:09;;;;;;;;;24.00;20.67;;;;;;;;5063108;28;46467;-72
2022/05/23 13:15:35;;;;;;;;;18.67;18.33;;;;;;;;5058123;28;45590;-72
2022/05/23 13:23:29;;;;;;;;;18.00;16.67;;;;;;;;5056898;28;45412;-72
2022/05/23 13:25:56;;;;;;;;;16.67;16.00;;;;;;;;5058606;28;45854;-72
2022/05/23 13:28:21;;;;;;;;;16.67;15.67;;;;;;;;5062039;28;45411;-72
2022/05/23 13:30:51;;;;;;;;;15.00;15.00;;;;;;;;5060663;28;45190;-72
2022/05/23 13:33:21;;;;;;;;;14.67;14.00;;;;;;;;5060945;28;47274;-72
2022/05/23 13:35:47;;;;;;;;;14.67;13.33;;;;;;;;5061650;28;45501;-72
2022/05/23 13:38:16;;;;;;;;;12.00;10.33;;;;;;;;5063766;28;45406;-72
2022/05/23 13:40:43;;;;;;;;;8.00;8.00;;;;;;;;5062661;28;45373;-72
2022/05/23 13:43:15;;;;;;;;;10.67;10.67;;;;;;;;5055730;28;46298;-72
2022/05/23 13:45:42;;;;;;;;;14.00;12.67;;;;;;;;5062659;28;45341;-72
2022/05/23 13:48:23;;;;;;;;;9.00;9.00;;;;;;;;5054799;28;45427;-72
2022/05/23 13:50:52;;;;;;;;;12.33;11.00;;;;;;;;5058006;28;45301;-72
2022/05/23 13:53:21;;;;;;;;;7.00;7.00;;;;;;;;5058008;28;46033;-71
2022/05/23 13:55:47;;;;;;;;;10.00;8.67;;;;;;;;5048119;28;45766;-70
2022/05/23 13:58:15;;;;;;;;;9.67;8.67;;;;;;;;5080332;27;45200;-71
2022/05/23 14:00:43;;;;;;;;;7.00;7.00;;;;;;;;5044622;28;45658;-71
2022/05/23 14:03:16;;;;;;;;;7.33;7.33;;;;;;;;5057531;28;45547;-72
2022/05/23 14:05:43;;;;;;;;;9.00;9.00;;;;;;;;5066023;28;45264;-72
2022/05/23 14:08:09;;;;;;;;;7.00;7.00;;;;;;;;5058554;28;45373;-73
2022/05/23 14:10:37;;;;;;;;;10.00;9.00;;;;;;;;5057001;28;45376;-73
2022/05/23 14:13:03;;;;;;;;;9.67;9.67;;;;;;;;5057484;28;45222;-73
2022/05/23 14:15:30;;;;;;;;;12.67;11.00;;;;;;;;5055806;28;45273;-73
2022/05/23 14:17:58;;;;;;;;;9.00;9.00;;;;;;;;5056629;28;45329;-74
2022/05/23 14:20:29;;;;;;;;;9.00;9.00;;;;;;;;5058160;28;45365;-73
2022/05/23 14:23:05;;;;;;;;;10.00;8.67;;;;;;;;5057333;28;45755;-71
2022/05/23 14:25:32;;;;;;;;;7.00;7.00;;;;;;;;5056253;28;45507;-71
2022/05/23 14:28:04;;;;;;;;;8.33;7.33;;;;;;;;5067915;28;45466;-71
2022/05/23 14:30:35;;;;;;;;;9.00;7.67;;;;;;;;5056790;28;45579;-71
2022/05/23 14:33:02;;;;;;;;;6.67;6.00;;;;;;;;5051665;28;47559;-71
2022/05/23 14:35:33;;;;;;;;;7.00;7.00;;;;;;;;5057332;28;45165;-71
2022/05/23 14:37:58;;;;;;;;;6.67;6.67;;;;;;;;5059542;28;45369;-71
2022/05/23 14:40:37;;;;;;;;;8.67;8.00;;;;;;;;5056624;28;46105;-71
2022/05/23 14:43:05;;;;;;;;;8.00;7.00;;;;;;;;5058298;28;46103;-73
2022/05/23 14:45:30;;;;;;;;;8.67;7.67;;;;;;;;5081050;27;45306;-73
2022/05/23 14:48:00;;;;;;;;;7.67;7.67;;;;;;;;5064712;28;45675;-73
2022/05/23 14:50:31;;;;;;;;;9.33;7.67;;;;;;;;5055952;28;45337;-73
2022/05/23 14:55:47;;;;;;;;;9.00;8.33;;;;;;;;5053985;28;45438;-73
2022/05/23 15:01:02;;;;;;;;;6.00;6.00;;;;;;;;5054120;28;45496;-73
2022/05/23 15:03:42;;;;;;;;;10.00;8.00;;;;;;;;5058298;28;45816;-73
2022/05/23 15:06:07;;;;;;;;;9.00;7.00;;;;;;;;5081181;27;45762;-73
2022/05/23 15:08:33;;;;;;;;;6.00;6.00;;;;;;;;5058456;28;45414;-73
2022/05/23 15:10:58;;;;;;;;;9.00;6.00;;;;;;;;5056823;28;45412;-73
2022/05/23 15:13:24;;;;;;;;;6.33;4.33;;;;;;;;5057979;28;45381;-73
2022/05/23 15:15:50;;;;;;;;;7.33;6.67;;;;;;;;5052709;28;45506;-73
2022/05/23 15:18:16;;;;;;;;;3.67;3.67;;;;;;;;5053170;28;45365;-73
2022/05/23 15:20:41;;;;;;;;;6.00;5.33;;;;;;;;5054642;28;45707;-73
2022/05/23 15:23:07;;;;;;;;;5.00;5.00;;;;;;;;5055694;28;45717;-73
2022/05/23 15:25:32;;;;;;;;;7.00;5.67;;;;;;;;5054962;28;45481;-73
2022/05/23 15:27:58;;;;;;;;;6.00;6.00;;;;;;;;5058012;28;45576;-73
2022/05/23 15:30:25;;;;;;;;;7.00;5.67;;;;;;;;5075092;27;46064;-73
2022/05/23 15:32:51;;;;;;;;;3.00;3.00;;;;;;;;5057868;28;45567;-73
2022/05/23 15:35:17;;;;;;;;;7.33;5.67;;;;;;;;5040623;28;45523;-72
2022/05/23 15:37:43;;;;;;;;;6.00;4.33;;;;;;;;5050426;28;45347;-72